Terminal Aerodrome Forecast
Issued by NWS

Home | Current Version | Previous Version | Text Only | Print | Product List | Glossary On
Versions: 1 2 3 4 5 6 7 8 9 10 11 12 13 14 15 16 17 18 19 20 21
000
FTUS43 KBIS 242300
TAFJMS
TAF
KJMS 242320Z 2500/2524 31013KT P6SM VCTS BKN080CB
     FM250100 28005KT P6SM SCT100
     FM250800 28004KT 3SM BR FEW100
     FM251500 33010KT P6SM FEW100=

USA.gov is the U.S. government's official web portal to all federal, state and local government web resources and services.